Balt Flot 15 — UBPZ — position and weather

sailwx.info

Track history (hours):
 
Tides and Currents Weather Stations Pressure Air Temp Water Temp Dewpoint Dewpoint Depression Visibility Wind Speed Wind Dir Waves Ship Positions

Balt Flot 15

Last reported at 2018-Jan-21 17:59 UTC. Time now 2018-Jan-21 20:31 UTC.
Position N 52°10' E 003°42'.

Length 141 m; draft 3.5 m.

Type: Ship (hazmat cat C). MMSI: 273393370.

Date/timePositionNaut miles runAvg speedWind from/ knotsBaromVisibWave heightAir tempDewpointWater temp
2018-Jan-21 17:59N 52°10' E 003°42'0 0.7
2018-Jan-21 17:24N 52°11' E 003°42'3 6.9
2018-Jan-21 17:00N 52°12' E 003°46'7 8.4
2018-Jan-21 16:13N 52°19' E 003°48'2 8.6
2018-Jan-21 15:58N 52°21' E 003°48'82 9.5
2018-Jan-21 07:19N 53°32' E 004°56'116 9.5
2018-Jan-20 19:05N 54°01' E 008°06'210.7
2018-Jan-20 18:56N 54°01' E 008°09'4 8.2
2018-Jan-20 18:30N 54°00' E 008°15'612.4
2018-Jan-20 17:59N 53°59' E 008°25'713.5
2018-Jan-20 17:30N 53°58' E 008°36'713.5
2018-Jan-20 17:00N 53°52' E 008°43'611.1
2018-Jan-20 16:30N 53°51' E 008°52'510.1
2018-Jan-20 16:00N 53°52' E 009°01'5 9.5
2018-Jan-20 15:30N 53°53' E 009°08'0 0.8
2018-Jan-20 15:00N 53°54' E 009°09'0 0.0
2018-Jan-20 14:30N 53°54' E 009°09'0 1.0
2018-Jan-20 14:01N 53°54' E 009°09'4 7.2
2018-Jan-20 13:30N 53°57' E 009°13'3 6.4
2018-Jan-20 13:00N 53°59' E 009°17'4 7.8
2018-Jan-20 12:30N 54°03' E 009°18'5 8.4
2018-Jan-20 11:57N 54°07' E 009°20'2 4.2
2018-Jan-20 11:30N 54°09' E 009°22'0 0.0
2018-Jan-20 11:00N 54°09' E 009°22'2 3.7
2018-Jan-20 10:30N 54°10' E 009°25'4 8.4
2018-Jan-20 10:00N 54°11' E 009°31'4 8.3
2018-Jan-20 09:30N 54°14' E 009°36'2 3.3
2018-Jan-20 09:00N 54°16' E 009°37'3 5.2
2018-Jan-20 08:30N 54°18' E 009°40'3 5.0
2018-Jan-20 08:00N 54°20' E 009°43'34 5.9
2018-Jan-20 02:16N 54°35' E 010°36'310.8
2018-Jan-20 02:00N 54°35' E 010°41'510.6
2018-Jan-20 01:30N 54°36' E 010°50'5 9.9
2018-Jan-20 01:00N 54°36' E 010°58'5 9.7
2018-Jan-20 00:30N 54°37' E 011°06'5 9.2
2018-Jan-20 00:00N 54°35' E 011°14'5 9.7
2018-Jan-19 23:30N 54°33' E 011°22'510.0
2018-Jan-19 23:00N 54°31' E 011°29'5 9.4
2018-Jan-19 22:30N 54°29' E 011°37'11 8.8
2018-Jan-19 21:16N 54°26' E 011°55'2 9.0
2018-Jan-19 21:00N 54°26' E 011°59'5 9.1
2018-Jan-19 20:30N 54°26' E 012°07'214 9.6
2018-Jan-18 22:13N 54°58' E 018°13'710.1
2018-Jan-18 21:31N 54°58' E 018°26'010.1
2018-Jan-18 21:29N 54°58' E 018°26'5 9.8
2018-Jan-18 21:00N 54°56' E 018°34'510.6
2018-Jan-18 20:30N 54°52' E 018°40'510.1
2018-Jan-18 20:00N 54°49' E 018°46'4 8.8
2018-Jan-18 19:30N 54°45' E 018°51'5 9.8
2018-Jan-18 19:00N 54°41' E 018°56'4 8.9
2018-Jan-18 18:30N 54°37' E 018°55'510.2
2018-Jan-18 18:00N 54°33' E 018°50'4 8.8
2018-Jan-18 17:30N 54°32' E 018°43'5 9.2
2018-Jan-18 17:00N 54°32' E 018°35'1 1.9
2018-Jan-18 16:30N 54°32' E 018°33'0 0.0
2018-Jan-18 16:00N 54°32' E 018°33'0 0.0
2018-Jan-18 15:30N 54°32' E 018°33'0 0.0
2018-Jan-18 15:00N 54°32' E 018°33'0 0.0
2018-Jan-18 14:30N 54°32' E 018°33'0 0.0
2018-Jan-18 13:58N 54°32' E 018°33'0 0.0
2018-Jan-18 13:26N 54°32' E 018°33'0 0.0
2018-Jan-18 12:58N 54°32' E 018°33'0 0.0
2018-Jan-18 12:28N 54°32' E 018°33'0 0.0
2018-Jan-18 11:59N 54°32' E 018°33'0 0.0
2018-Jan-18 11:31N 54°32' E 018°33'0 0.0
2018-Jan-18 11:01N 54°32' E 018°33'0 0.0
2018-Jan-18 10:31N 54°32' E 018°33'0 0.0
2018-Jan-18 09:59N 54°32' E 018°33'0 0.0
2018-Jan-18 09:30N 54°32' E 018°33'0 0.0
2018-Jan-18 09:01N 54°32' E 018°33'0 0.0
2018-Jan-18 08:31N 54°32' E 018°33'0 0.0
2018-Jan-18 07:59N 54°32' E 018°33'0 0.0
2018-Jan-18 07:27N 54°32' E 018°33'0 0.0
2018-Jan-18 07:00N 54°32' E 018°33'0 0.0
2018-Jan-18 06:29N 54°32' E 018°33'0 0.0
2018-Jan-18 05:59N 54°32' E 018°33'0 0.0
2018-Jan-18 05:29N 54°32' E 018°33'0 0.0
2018-Jan-18 05:00N 54°32' E 018°33'0 0.0
2018-Jan-18 04:30N 54°32' E 018°33'0 0.0
2018-Jan-18 03:59N 54°32' E 018°33'0 0.0
2018-Jan-18 03:28N 54°32' E 018°33'0 0.0
2018-Jan-18 03:01N 54°32' E 018°33'0 0.0
2018-Jan-18 02:31N 54°32' E 018°33'0 0.0
2018-Jan-18 01:55N 54°32' E 018°33'0 0.0
2018-Jan-18 01:29N 54°32' E 018°33'0 0.0
2018-Jan-18 00:58N 54°32' E 018°33'0 0.0
2018-Jan-17 23:59N 54°32' E 018°33'0 0.0
2018-Jan-17 23:51N 54°32' E 018°33'  
2018-Jan-12 14:55N 54°31' E 018°42'0 0.0
2018-Jan-12 14:29N 54°31' E 018°42'0 0.0
2018-Jan-12 14:00N 54°31' E 018°42'0 0.0
2018-Jan-12 13:30N 54°31' E 018°42'0 0.0
2018-Jan-12 12:55N 54°31' E 018°42'0 0.0
2018-Jan-12 12:29N 54°31' E 018°42'0 0.0
2018-Jan-12 12:00N 54°31' E 018°42'0 0.0
2018-Jan-12 11:30N 54°31' E 018°42'0 0.0
2018-Jan-12 10:58N 54°31' E 018°42'0 0.0
2018-Jan-12 10:28N 54°31' E 018°42'0 0.1
2018-Jan-12 09:59N 54°31' E 018°42'0 0.0
2018-Jan-12 09:28N 54°31' E 018°42'0 0.0
2018-Jan-12 08:53N 54°31' E 018°42'0 0.0
2018-Jan-12 08:28N 54°31' E 018°42'0 0.1
2018-Jan-12 08:00N 54°31' E 018°42'3 6.2
2018-Jan-12 07:30N 54°32' E 018°47'5 9.1
2018-Jan-12 07:00N 54°35' E 018°52'5 9.1
2018-Jan-12 06:30N 54°40' E 018°55'5 9.1
2018-Jan-12 06:00N 54°44' E 018°59'5 9.3
2018-Jan-12 05:30N 54°46' E 019°06'5 9.9
2018-Jan-12 05:00N 54°47' E 019°15'510.0
2018-Jan-12 04:30N 54°48' E 019°23'510.2
2018-Jan-12 03:59N 54°49' E 019°32'4 8.2
2018-Jan-12 03:28N 54°52' E 019°38'1110.0
2018-Jan-12 02:25N 55°03' E 019°38'  
Track history (hours):
 
Tides and Currents Weather Stations Pressure Air Temp Water Temp Dewpoint Dewpoint Depression Visibility Wind Speed Wind Dir Waves Ship Positions

Balt Flot 15

Last reported at 2018-Jan-21 17:59 UTC. Time now 2018-Jan-21 20:31 UTC.
Position N 52°10' E 003°42'.

Length 141 m; draft 3.5 m.

Type: Ship (hazmat cat C). MMSI: 273393370.

Date/timePositionNaut miles runAvg speedWind from/ knotsBaromVisibWave heightAir tempDewpointWater temp
2018-Jan-21 17:59N 52°10' E 003°42'0 0.7
2018-Jan-21 17:24N 52°11' E 003°42'3 6.9
2018-Jan-21 17:00N 52°12' E 003°46'7 8.4
2018-Jan-21 16:13N 52°19' E 003°48'2 8.6
2018-Jan-21 15:58N 52°21' E 003°48'82 9.5
2018-Jan-21 07:19N 53°32' E 004°56'116 9.5
2018-Jan-20 19:05N 54°01' E 008°06'210.7
2018-Jan-20 18:56N 54°01' E 008°09'4 8.2
2018-Jan-20 18:30N 54°00' E 008°15'612.4
2018-Jan-20 17:59N 53°59' E 008°25'713.5
2018-Jan-20 17:30N 53°58' E 008°36'713.5
2018-Jan-20 17:00N 53°52' E 008°43'611.1
2018-Jan-20 16:30N 53°51' E 008°52'510.1
2018-Jan-20 16:00N 53°52' E 009°01'5 9.5
2018-Jan-20 15:30N 53°53' E 009°08'0 0.8
2018-Jan-20 15:00N 53°54' E 009°09'0 0.0
2018-Jan-20 14:30N 53°54' E 009°09'0 1.0
2018-Jan-20 14:01N 53°54' E 009°09'4 7.2
2018-Jan-20 13:30N 53°57' E 009°13'3 6.4
2018-Jan-20 13:00N 53°59' E 009°17'4 7.8
2018-Jan-20 12:30N 54°03' E 009°18'5 8.4
2018-Jan-20 11:57N 54°07' E 009°20'2 4.2
2018-Jan-20 11:30N 54°09' E 009°22'0 0.0
2018-Jan-20 11:00N 54°09' E 009°22'2 3.7
2018-Jan-20 10:30N 54°10' E 009°25'4 8.4
2018-Jan-20 10:00N 54°11' E 009°31'4 8.3
2018-Jan-20 09:30N 54°14' E 009°36'2 3.3
2018-Jan-20 09:00N 54°16' E 009°37'3 5.2
2018-Jan-20 08:30N 54°18' E 009°40'3 5.0
2018-Jan-20 08:00N 54°20' E 009°43'34 5.9
2018-Jan-20 02:16N 54°35' E 010°36'310.8
2018-Jan-20 02:00N 54°35' E 010°41'510.6
2018-Jan-20 01:30N 54°36' E 010°50'5 9.9
2018-Jan-20 01:00N 54°36' E 010°58'5 9.7
2018-Jan-20 00:30N 54°37' E 011°06'5 9.2
2018-Jan-20 00:00N 54°35' E 011°14'5 9.7
2018-Jan-19 23:30N 54°33' E 011°22'510.0
2018-Jan-19 23:00N 54°31' E 011°29'5 9.4
2018-Jan-19 22:30N 54°29' E 011°37'11 8.8
2018-Jan-19 21:16N 54°26' E 011°55'2 9.0
2018-Jan-19 21:00N 54°26' E 011°59'5 9.1
2018-Jan-19 20:30N 54°26' E 012°07'214 9.6
2018-Jan-18 22:13N 54°58' E 018°13'710.1
2018-Jan-18 21:31N 54°58' E 018°26'010.1
2018-Jan-18 21:29N 54°58' E 018°26'5 9.8
2018-Jan-18 21:00N 54°56' E 018°34'510.6
2018-Jan-18 20:30N 54°52' E 018°40'510.1
2018-Jan-18 20:00N 54°49' E 018°46'4 8.8
2018-Jan-18 19:30N 54°45' E 018°51'5 9.8
2018-Jan-18 19:00N 54°41' E 018°56'4 8.9
2018-Jan-18 18:30N 54°37' E 018°55'510.2
2018-Jan-18 18:00N 54°33' E 018°50'4 8.8
2018-Jan-18 17:30N 54°32' E 018°43'5 9.2
2018-Jan-18 17:00N 54°32' E 018°35'1 1.9
2018-Jan-18 16:30N 54°32' E 018°33'0 0.0
2018-Jan-18 16:00N 54°32' E 018°33'0 0.0
2018-Jan-18 15:30N 54°32' E 018°33'0 0.0
2018-Jan-18 15:00N 54°32' E 018°33'0 0.0
2018-Jan-18 14:30N 54°32' E 018°33'0 0.0
2018-Jan-18 13:58N 54°32' E 018°33'0 0.0
2018-Jan-18 13:26N 54°32' E 018°33'0 0.0
2018-Jan-18 12:58N 54°32' E 018°33'0 0.0
2018-Jan-18 12:28N 54°32' E 018°33'0 0.0
2018-Jan-18 11:59N 54°32' E 018°33'0 0.0
2018-Jan-18 11:31N 54°32' E 018°33'0 0.0
2018-Jan-18 11:01N 54°32' E 018°33'0 0.0
2018-Jan-18 10:31N 54°32' E 018°33'0 0.0
2018-Jan-18 09:59N 54°32' E 018°33'0 0.0
2018-Jan-18 09:30N 54°32' E 018°33'0 0.0
2018-Jan-18 09:01N 54°32' E 018°33'0 0.0
2018-Jan-18 08:31N 54°32' E 018°33'0 0.0
2018-Jan-18 07:59N 54°32' E 018°33'0 0.0
2018-Jan-18 07:27N 54°32' E 018°33'0 0.0
2018-Jan-18 07:00N 54°32' E 018°33'0 0.0
2018-Jan-18 06:29N 54°32' E 018°33'0 0.0
2018-Jan-18 05:59N 54°32' E 018°33'0 0.0
2018-Jan-18 05:29N 54°32' E 018°33'0 0.0
2018-Jan-18 05:00N 54°32' E 018°33'0 0.0
2018-Jan-18 04:30N 54°32' E 018°33'0 0.0
2018-Jan-18 03:59N 54°32' E 018°33'0 0.0
2018-Jan-18 03:28N 54°32' E 018°33'0 0.0
2018-Jan-18 03:01N 54°32' E 018°33'0 0.0
2018-Jan-18 02:31N 54°32' E 018°33'0 0.0
2018-Jan-18 01:55N 54°32' E 018°33'0 0.0
2018-Jan-18 01:29N 54°32' E 018°33'0 0.0
2018-Jan-18 00:58N 54°32' E 018°33'0 0.0
2018-Jan-17 23:59N 54°32' E 018°33'0 0.0
2018-Jan-17 23:51N 54°32' E 018°33'  
2018-Jan-12 14:55N 54°31' E 018°42'0 0.0
2018-Jan-12 14:29N 54°31' E 018°42'0 0.0
2018-Jan-12 14:00N 54°31' E 018°42'0 0.0
2018-Jan-12 13:30N 54°31' E 018°42'0 0.0
2018-Jan-12 12:55N 54°31' E 018°42'0 0.0
2018-Jan-12 12:29N 54°31' E 018°42'0 0.0
2018-Jan-12 12:00N 54°31' E 018°42'0 0.0
2018-Jan-12 11:30N 54°31' E 018°42'0 0.0
2018-Jan-12 10:58N 54°31' E 018°42'0 0.0
2018-Jan-12 10:28N 54°31' E 018°42'0 0.1
2018-Jan-12 09:59N 54°31' E 018°42'0 0.0
2018-Jan-12 09:28N 54°31' E 018°42'0 0.0
2018-Jan-12 08:53N 54°31' E 018°42'0 0.0
2018-Jan-12 08:28N 54°31' E 018°42'0 0.1
2018-Jan-12 08:00N 54°31' E 018°42'3 6.2
2018-Jan-12 07:30N 54°32' E 018°47'5 9.1
2018-Jan-12 07:00N 54°35' E 018°52'5 9.1
2018-Jan-12 06:30N 54°40' E 018°55'5 9.1
2018-Jan-12 06:00N 54°44' E 018°59'5 9.3
2018-Jan-12 05:30N 54°46' E 019°06'5 9.9
2018-Jan-12 05:00N 54°47' E 019°15'510.0
2018-Jan-12 04:30N 54°48' E 019°23'510.2
2018-Jan-12 03:59N 54°49' E 019°32'4 8.2
2018-Jan-12 03:28N 54°52' E 019°38'1110.0
2018-Jan-12 02:25N 55°03' E 019°38'  

Dump ship's entire track history